Terminal Aerodrome Forecast
Issued by NWS

Home | Current Version | Previous Version | Graphics & Text | Print | Product List | Glossary On
Versions: 1 2 3 4 5 6 7 8 9 10 11 12 13 14 15
000
FTUS43 KGLD 230549 AAA
TAFMCK
TAF AMD
KMCK 230549Z 2306/2406 17007KT P6SM VCTS BKN100CB
      TEMPO 2306/2307 VRB30G50KT 3SM -TSRA BKN080CB
     FM230700 20006KT P6SM BKN150
     FM231800 25007KT P6SM SCT250
     FM232100 34007KT P6SM SCT250
     FM240000 04008KT P6SM VCSH SCT100 SCT250=

USA.gov is the U.S. government's official web portal to all federal, state and local government web resources and services.